Flight Track Log - Related Links

Times and Time Zones

All times are in EDT time to prevent confusion due to time zone crossing. See the AAY1029 flight status page for this flight to view local times or setup timezone preferences in your user account.

Time Position Orientation Groundspeed Altitude Reporting Facility
EDT Latitude Longitude Course Direction KTS MPH feet Rate Location/Type
Wed 02:42:57 PM 37.7253 -122.2503 287° West 154 177 1,100  Level Oakland Center
Wed 02:43:28 PM 37.7333 -122.2833 287° West 188 216 2,000 1,951 Climbing Northern Cal TRACON
Wed 02:45:00 PM 37.8244 -122.2994 352° North 240 276 5,100 2,416 Climbing Oakland Center
Wed 02:46:02 PM 37.8978 -122.3042 357° North 261 300 8,200 2,634 Climbing Oakland Center
Wed 02:47:03 PM 37.9744 -122.3053 359° North 274 315 10,500 1,463 Climbing Oakland Center
Wed 02:48:05 PM 38.0667 -122.2786 13° North 335 386 11,200 2,049 Climbing Oakland Center
Wed 02:49:06 PM 38.1928 -122.2381 14° North 386 444 14,700 2,732 Climbing Oakland Center
Wed 02:50:08 PM 38.3047 -122.2378 360° North 401 461 16,800 2,195 Climbing Oakland Center
Wed 02:51:09 PM 38.4181 -122.2339 North 408 470 19,200 2,146 Climbing Oakland Center
Wed 02:52:11 PM 38.5342 -122.2361 359° North 414 476 21,200 1,707 Climbing Oakland Center
Wed 02:53:12 PM 38.6528 -122.2339 North 423 487 22,700 1,707 Climbing Oakland Center
Wed 02:54:14 PM 38.7833 -122.2367 359° North 438 504 24,700 1,951 Climbing Oakland Center
Wed 02:55:15 PM 38.9033 -122.2344 North 433 498 26,700 2,146 Climbing Oakland Center
Wed 02:56:17 PM 39.0222 -122.2392 358° North 426 490 29,100 1,756 Climbing Oakland Center
Wed 02:57:18 PM 39.1364 -122.2358 North 412 474 30,300 1,220 Climbing Oakland Center
Wed 02:58:20 PM 39.2503 -122.2392 359° North 409 471 31,600 1,268 Climbing Oakland Center
Wed 02:59:21 PM 39.3622 -122.2389 360° North 405 466 32,900 976 Climbing Oakland Center
Wed 03:00:23 PM 39.4864 -122.2397 360° North 401 461 33,600 537 Climbing Oakland Center
Wed 03:01:24 PM 39.5975 -122.2419 359° North 400 460 34,000 195 Climbing Oakland Center
Wed 03:02:26 PM 39.7086 -122.2314 North 400 460 34,000  Level Oakland Center
Wed 03:03:27 PM 39.8192 -122.2417 356° North 398 458 34,000  Level Oakland Center
Wed 03:04:29 PM 39.9525 -122.2375 North 400 460 34,000  Level Oakland Center
Wed 03:05:30 PM 40.0631 -122.2403 359° North 401 461 34,000 -49 Level Oakland Center
Wed 03:06:32 PM 40.1769 -122.2372 North 406 467 33,900  Descending Oakland Center
Wed 03:07:33 PM 40.2803 -122.2453 357° North 420 483 34,000 49 Climbing Oakland Center
Wed 03:08:35 PM 40.4142 -122.2406 North 409 471 34,000  Level Oakland Center
Wed 03:09:36 PM 40.5222 -122.2481 357° North 396 456 34,000  Level Oakland Center
Wed 03:10:38 PM 40.6339 -122.2400 North 402 463 34,000  Level Oakland Center
Wed 03:11:40 PM 40.7422 -122.2472 357° North 393 452 34,000  Level Oakland Center
Wed 03:13:21 PM 40.9175 -122.2497 359° North 393 452 34,000  Level Seattle Center
Wed 03:14:22 PM 41.0275 -122.2469 North 397 457 34,000  Level Seattle Center
Wed 03:15:23 PM 41.1600 -122.2517 358° North 397 457 34,000  Level Seattle Center
Wed 03:16:25 PM 41.2722 -122.2475 North 404 465 34,000  Level Seattle Center
Wed 03:17:26 PM 41.3825 -122.2536 358° North 398 458 34,000  Level Seattle Center
Wed 03:18:27 PM 41.4817 -122.2503 North 400 460 34,000  Level Seattle Center
Wed 03:19:28 PM 41.5922 -122.2522 359° North 398 458 34,000  Level Seattle Center
Wed 03:20:29 PM 41.7250 -122.2489 North 399 459 34,000  Level Seattle Center
Wed 03:21:31 PM 41.8353 -122.2533 358° North 397 457 34,000  Level Seattle Center
Wed 03:22:32 PM 41.9469 -122.2489 North 398 458 34,000  Level Seattle Center
Wed 03:23:33 PM 42.0575 -122.2544 358° North 392 451 34,000  Level Seattle Center
Wed 03:24:34 PM 42.1683 -122.2494 North 394 453 34,000  Level Seattle Center
Wed 03:25:35 PM 42.2783 -122.2544 358° North 392 451 34,000  Level Seattle Center
Wed 03:26:37 PM 42.3889 -122.2508 North 395 455 34,000  Level Seattle Center
Wed 03:27:38 PM 42.4997 -122.2544 359° North 397 457 34,000  Level Seattle Center
Wed 03:28:39 PM 42.6103 -122.2522 North 397 457 34,000  Level Seattle Center
Wed 03:29:40 PM 42.7211 -122.2522 360° North 398 458 34,000  Level Seattle Center
Wed 03:30:41 PM 42.8444 -122.2531 360° North 395 455 34,000  Level Seattle Center
Wed 03:31:42 PM 42.9558 -122.2556 359° North 398 458 34,000  Level Seattle Center
Wed 03:32:44 PM 43.0658 -122.2567 360° North 397 457 34,000  Level Seattle Center
Wed 03:33:45 PM 43.1775 -122.2531 North 399 459 34,000  Level Seattle Center
Wed 03:34:46 PM 43.2864 -122.2594 358° North 394 453 34,000  Level Seattle Center
Wed 03:35:47 PM 43.3981 -122.2531 North 399 459 34,000  Level Seattle Center
Wed 03:36:48 PM 43.5069 -122.2611 357° North 396 456 34,000  Level Seattle Center
Wed 03:37:49 PM 43.6186 -122.2556 North 401 461 34,000  Level Seattle Center
Wed 03:38:51 PM 43.7272 -122.2619 358° North 396 456 34,000  Level Seattle Center
Wed 03:39:52 PM 43.8378 -122.2553 North 400 460 34,000  Level Seattle Center
Wed 03:40:53 PM 43.9683 -122.2628 358° North 395 455 34,000  Level Seattle Center
Wed 03:41:54 PM 44.0783 -122.2569 North 397 457 34,000  Level Seattle Center
Wed 03:42:55 PM 44.1850 -122.2644 357° North 388 447 34,000  Level Seattle Center
Wed 03:44:00 PM 44.3055 -122.2646 360° North  Level FlightAware Approximate
Wed 03:48:01 PM 44.7200 -122.2628 360° North 385 443 34,000  Level Seattle Center
Wed 03:49:02 PM 44.8272 -122.2686 358° North 385 443 34,000  Level Seattle Center
Wed 03:50:03 PM 44.9486 -122.2625 North 379 436 34,000  Level Seattle Center
Wed 03:51:00 PM 45.0844 -122.2655 360° North  Level FlightAware Approximate
Wed 03:51:05 PM 45.0542 -122.2692 357° North 380 437 34,000  Level Seattle Center
Wed 03:52:00 PM 45.1957 -122.2657 360° North  Level FlightAware Approximate
Wed 03:52:06 PM 45.1631 -122.2647 North 389 448 34,000  Level Seattle Center
Wed 03:53:00 PM 45.3048 -122.2658 360° North  Level FlightAware Approximate
Wed 03:53:07 PM 45.2686 -122.2706 358° North 385 443 34,000  Level Seattle Center
Wed 03:54:08 PM 45.3756 -122.2647 North 386 444 34,000  Level Seattle Center
Wed 03:55:09 PM 45.4811 -122.2708 358° North 383 441 34,000  Level Seattle Center
Wed 03:56:10 PM 45.5858 -122.2650 North 379 436 34,000  Level Seattle Center
Wed 03:57:11 PM 45.6908 -122.2708 358° North 378 435 34,000 -49 Level Seattle Center
Wed 03:58:12 PM 45.7950 -122.2678 North 378 435 33,900  Descending Seattle Center
Wed 03:59:13 PM 45.9200 -122.2714 359° North 375 432 34,000 49 Climbing Seattle Center
Wed 04:00:15 PM 46.0253 -122.2678 North 379 436 34,000  Level Seattle Center
Wed 04:01:16 PM 46.1294 -122.2717 359° North 376 433 34,000  Level Seattle Center
Wed 04:02:17 PM 46.2342 -122.2689 North 378 435 34,000  Level Seattle Center
Wed 04:03:18 PM 46.3369 -122.2711 359° North 373 429 34,000  Level Seattle Center
Wed 04:04:19 PM 46.4406 -122.2708 360° North 374 430 34,000  Level Seattle Center
Wed 04:05:20 PM 46.5453 -122.2708 360° North 378 435 34,000  Level Seattle Center
Wed 04:06:21 PM 46.6481 -122.2747 359° North 371 427 34,000  Level Seattle Center
Wed 04:07:22 PM 46.7519 -122.2689 North 373 429 34,000  Level Seattle Center
Wed 04:08:23 PM 46.8533 -122.2750 358° North 366 421 34,000  Level Seattle Center
Wed 04:09:24 PM 46.9764 -122.2706 North 369 425 34,000  Level Seattle Center
Wed 04:10:26 PM 47.0783 -122.2781 357° North 367 422 34,000  Level Seattle Center
Wed 04:11:27 PM 47.1825 -122.2697 North 373 429 34,000  Level Seattle Center
Wed 04:12:28 PM 47.2844 -122.2778 357° North 368 423 34,000 -787 Level Seattle Center
Wed 04:13:29 PM 47.3883 -122.2711 North 373 429 32,400 -1,918 Descending Seattle Center
Wed 04:14:30 PM 47.4889 -122.2800 357° North 363 418 30,100 -2,311 Descending Seattle Center
Wed 04:15:31 PM 47.5825 -122.2772 North 365 420 27,700 -2,705 Descending Seattle Center
Wed 04:16:32 PM 47.7028 -122.2811 359° North 363 418 24,600 -2,557 Descending Seattle Center
Wed 04:17:33 PM 47.8031 -122.2769 North 363 418 22,500 -2,066 Descending Seattle Center
Wed 04:18:34 PM 47.8975 -122.2772 360° North 344 396 20,400 -2,244 Descending Seattle Center
Wed 04:19:36 PM 47.9986 -122.3075 349° North 342 394 17,900 -2,087 Descending Seattle Center
Wed 04:20:29 PM 48.0761 -122.3233 352° North 331 381 16,400 -1,672 Descending Seattle Center
Wed 04:20:37 PM 48.0889 -122.3275 348° North 331 381 16,200 -1,770 Descending Seattle Center
Wed 04:21:30 PM 48.1633 -122.3494 349° North 322 371 14,600 -1,869 Descending Seattle Center
Wed 04:21:38 PM 48.1761 -122.3542 346° North 323 372 14,300 -2,200 Descending Seattle Center
Wed 04:22:30 PM 48.2489 -122.3697 352° North 316 364 12,400 -2,066 Descending Seattle Center
Wed 04:22:39 PM 48.2622 -122.3742 347° North 316 364 12,200 -1,770 Descending Seattle Center
Wed 04:23:31 PM 48.3378 -122.4017 346° North 307 353 10,600 -1,574 Descending Seattle Center
Wed 04:23:40 PM 48.3367 -122.4017 180° South 306 352 10,600 -1,279 Level Seattle Center
Wed 04:24:32 PM 48.4142 -122.4211 351° North 278 320 9,300 -1,279 Descending Seattle Center
Wed 04:24:41 PM 48.4169 -122.4194 22° Northeast 286 329 9,300 -1,200 Level Seattle Center
Wed 04:25:32 PM 48.4867 -122.4425 348° North 263 303 8,100 -1,180 Descending Seattle Center
Wed 04:25:42 PM 48.4894 -122.4436 345° North 279 321 8,100 -1,082 Level Seattle Center
Wed 04:26:33 PM 48.5558 -122.4594 351° North 223 257 7,000 -1,377 Descending Seattle Center
Wed 04:26:43 PM 48.5669 -122.4636 346° North 260 299 6,700 -1,183 Descending Seattle Center
Wed 04:27:44 PM 48.6133 -122.4850 343° North 246 283 5,600 -1,459 Descending Seattle Center
Wed 04:29:11 PM 48.6833 -122.5667 322° Northwest 220 253 3,100 -1,469 Descending Vancouver Center
Wed 04:30:11 PM 48.7500 -122.5667 360° North 220 253 2,000 -550 Descending Vancouver Center
Wed 04:31:11 PM 48.8000 -122.5833 348° North 210 242 2,000 -150 Level Vancouver Center
Wed 04:32:11 PM 48.8500 -122.5833 360° North 180 207 1,700 -500 Descending Vancouver Center
Wed 04:33:11 PM 48.8333 -122.5333 117° Southeast 150 173 1,000 -700 Descending Vancouver Center
Wed 04:34:11 PM 48.8000 -122.5333 180° South 130 150 300 -700 Descending Vancouver Center

Login

Don't have an account? Register now (free) for customized features, flight alerts, and more!